Time;durP1;ratioP1;P1;durP2;ratioP2;P2;SDS_P1;SDS_P2;PMS_P1;PMS_P2;Temp;Humidity;BMP_temperature;BMP_pressure;BME280_temperature;BME280_humidity;BME280_pressure;Samples;Min_cycle;Max_cycle;Signal;HPM_P1;HPM_P2
2022/11/04 00:01:24;;;;;;;3.95;2.60;;;12.50;99.90;;;;;;5076768;28;20024;-43
2022/11/04 00:03:51;;;;;;;2.97;2.35;;;12.40;99.90;;;;;;5067448;28;20029;-41
2022/11/04 00:06:16;;;;;;;3.50;3.20;;;12.50;99.90;;;;;;5074619;28;20157;-39
2022/11/04 00:08:42;;;;;;;3.90;3.33;;;12.50;99.90;;;;;;5070058;28;20028;-40
2022/11/04 00:13:53;;;;;;;4.18;3.88;;;12.40;99.90;;;;;;5068657;28;20051;-40
2022/11/04 00:19:06;;;;;;;4.60;3.88;;;12.40;99.90;;;;;;5069301;28;20151;-37
2022/11/04 00:30:18;;;;;;;6.68;5.75;;;12.40;99.90;;;;;;5065539;28;20086;-40
2022/11/04 00:35:28;;;;;;;7.45;6.63;;;12.40;99.90;;;;;;5064643;28;20055;-40
2022/11/04 00:37:53;;;;;;;8.50;7.55;;;12.40;99.90;;;;;;5077812;28;20044;-38
2022/11/04 00:40:19;;;;;;;7.78;7.07;;;12.30;99.90;;;;;;5065030;28;20025;-39
2022/11/04 00:42:45;;;;;;;7.93;7.13;;;12.30;99.90;;;;;;5076572;28;20032;-39
2022/11/04 00:45:11;;;;;;;7.78;7.00;;;12.30;99.90;;;;;;5066533;28;20043;-38
2022/11/04 00:47:36;;;;;;;9.85;8.93;;;12.30;99.90;;;;;;5074752;28;20471;-40
2022/11/04 00:50:02;;;;;;;8.40;7.60;;;12.30;99.90;;;;;;5068654;28;20028;-38
2022/11/04 00:52:27;;;;;;;7.35;6.60;;;12.30;99.90;;;;;;5071273;28;20063;-39
2022/11/04 00:54:53;;;;;;;7.10;6.40;;;12.30;99.90;;;;;;5072133;28;20115;-38
2022/11/04 00:57:18;;;;;;;6.35;5.20;;;12.20;99.90;;;;;;5066166;28;20072;-38
2022/11/04 00:59:44;;;;;;;4.88;4.47;;;12.20;99.90;;;;;;5074465;28;20017;-40
2022/11/04 01:02:10;;;;;;;4.03;3.72;;;12.20;99.90;;;;;;5066422;28;20036;-41
2022/11/04 01:04:36;;;;;;;3.70;3.40;;;12.10;99.90;;;;;;5076022;28;20104;-41
2022/11/04 01:07:05;;;;;;;2.67;2.47;;;12.00;99.90;;;;;;5066297;28;20556;-40
2022/11/04 01:09:30;;;;;;;3.38;2.58;;;12.00;99.90;;;;;;5075127;28;20025;-41
2022/11/04 01:11:56;;;;;;;2.40;2.20;;;12.00;99.90;;;;;;5072710;28;20028;-41
2022/11/04 01:14:21;;;;;;;2.55;2.15;;;11.90;99.90;;;;;;5071746;28;20475;-40
2022/11/04 01:16:50;;;;;;;1.50;1.40;;;11.90;99.90;;;;;;5084732;28;20020;-40
2022/11/04 01:19:16;;;;;;;1.92;1.30;;;11.80;99.90;;;;;;5072292;28;20107;-40
2022/11/04 01:21:41;;;;;;;1.17;1.00;;;11.80;99.90;;;;;;5085100;28;20546;-40
2022/11/04 01:24:09;;;;;;;1.15;0.90;;;11.70;99.90;;;;;;5072538;28;20043;-38
2022/11/04 01:26:35;;;;;;;1.58;0.93;;;11.70;99.90;;;;;;5084739;28;20020;-39
2022/11/04 01:29:02;;;;;;;1.83;0.90;;;11.60;99.90;;;;;;5075467;28;20035;-38
2022/11/04 01:31:29;;;;;;;0.80;0.80;;;11.60;99.90;;;;;;5080739;28;20628;-41
2022/11/04 01:33:55;;;;;;;0.70;0.63;;;11.60;99.90;;;;;;5077787;28;20040;-40
2022/11/04 01:36:22;;;;;;;0.57;0.57;;;11.60;99.90;;;;;;5078759;28;20039;-41
2022/11/04 01:38:48;;;;;;;0.60;0.60;;;11.50;99.90;;;;;;5079766;28;20028;-39
2022/11/04 01:41:19;;;;;;;0.93;0.70;;;11.50;99.90;;;;;;5076039;28;20027;-40
2022/11/04 01:43:58;;;;;;;0.97;0.80;;;11.50;99.90;;;;;;5082302;28;20103;-42
2022/11/04 01:46:42;;;;;;;1.17;1.02;;;11.50;99.90;;;;;;5075949;28;20467;-40
2022/11/04 01:49:29;;;;;;;1.30;1.20;;;11.40;99.90;;;;;;5080063;28;20086;-38
2022/11/04 01:52:09;;;;;;;1.65;1.52;;;11.40;99.90;;;;;;5079352;28;20020;-38
2022/11/04 01:54:40;;;;;;;3.20;1.90;;;11.40;99.90;;;;;;5077558;28;20028;-40
2022/11/04 01:57:10;;;;;;;2.38;2.05;;;11.40;99.90;;;;;;5079316;28;20032;-41
2022/11/04 01:59:39;;;;;;;2.38;2.13;;;11.30;99.90;;;;;;5078133;28;20025;-40
2022/11/04 02:02:06;;;;;;;2.65;2.45;;;11.40;99.90;;;;;;5077273;28;20028;-39
2022/11/04 02:04:31;;;;;;;2.22;2.03;;;11.40;99.90;;;;;;5080725;28;20139;-34
2022/11/04 02:07:00;;;;;;;4.55;2.63;;;11.40;99.90;;;;;;5074057;28;20103;-41
2022/11/04 02:09:28;;;;;;;3.15;2.80;;;11.40;99.90;;;;;;5082003;28;20043;-41
2022/11/04 02:14:39;;;;;;;5.45;4.95;;;11.40;99.90;;;;;;5081968;28;20130;-41
2022/11/04 02:17:05;;;;;;;7.25;6.55;;;11.50;99.90;;;;;;5073123;28;20066;-40
2022/11/04 02:20:11;;;;;;;6.57;5.57;;;11.50;99.90;;;;;;5081204;28;20123;-39
2022/11/04 02:22:51;;;;;;;8.75;7.55;;;11.50;99.90;;;;;;5007264;28;20036;-40
2022/11/04 02:25:47;;;;;;;9.40;8.50;;;11.50;99.90;;;;;;5067190;28;20109;-40
2022/11/04 02:28:49;;;;;;;10.20;8.70;;;11.50;99.90;;;;;;5066770;28;20035;-39
2022/11/04 02:31:50;;;;;;;9.77;8.82;;;11.50;99.90;;;;;;5073724;28;20034;-39
2022/11/04 02:34:35;;;;;;;10.27;9.30;;;11.50;99.90;;;;;;5062184;28;20044;-40
2022/11/04 02:37:00;;;;;;;11.48;10.27;;;11.50;99.90;;;;;;5076636;28;20048;-39
2022/11/04 02:39:52;;;;;;;11.77;10.52;;;11.50;99.90;;;;;;5063555;28;20689;-39
2022/11/04 02:42:27;;;;;;;11.75;10.50;;;11.60;99.90;;;;;;5060851;28;20075;-40
2022/11/04 02:45:04;;;;;;;13.38;11.52;;;11.60;99.90;;;;;;5063624;28;20391;-40
2022/11/04 02:47:31;;;;;;;12.90;11.57;;;11.50;99.90;;;;;;5070475;28;20043;-39
2022/11/04 02:50:13;;;;;;;15.05;13.45;;;11.50;99.90;;;;;;5082999;28;20024;-40
2022/11/04 02:53:04;;;;;;;17.33;15.30;;;11.60;99.90;;;;;;5070855;28;20017;-40
2022/11/04 02:55:41;;;;;;;17.63;15.82;;;11.60;99.90;;;;;;5081289;28;20231;-39
2022/11/04 02:58:13;;;;;;;15.30;13.80;;;11.60;99.90;;;;;;5074113;28;20459;-40
2022/11/04 03:00:42;;;;;;;14.88;13.38;;;11.60;99.90;;;;;;5063565;28;20024;-40
2022/11/04 03:03:21;;;;;;;15.82;14.20;;;11.50;99.90;;;;;;5073483;28;20029;-40
2022/11/04 03:05:50;;;;;;;15.00;13.50;;;11.60;99.90;;;;;;5063643;28;20476;-39
2022/11/04 03:08:47;;;;;;;16.40;14.70;;;11.50;99.90;;;;;;5075054;28;20021;-39
2022/11/04 03:11:20;;;;;;;15.60;13.88;;;11.50;99.90;;;;;;5062263;28;20115;-42
2022/11/04 03:14:01;;;;;;;16.17;14.48;;;11.60;99.90;;;;;;5074731;28;20037;-41
2022/11/04 03:16:36;;;;;;;15.27;13.75;;;11.60;99.90;;;;;;5062880;28;20036;-40
2022/11/04 03:19:39;;;;;;;16.08;14.40;;;11.60;99.90;;;;;;5074021;28;20047;-35
2022/11/04 03:22:17;;;;;;;16.07;14.47;;;11.60;99.90;;;;;;5069979;28;20502;-40
2022/11/04 03:24:45;;;;;;;14.90;13.30;;;11.60;99.90;;;;;;5074344;28;20064;-40
2022/11/04 03:27:20;;;;;;;15.23;13.63;;;11.60;99.90;;;;;;5068860;28;20100;-39
2022/11/04 03:30:01;;;;;;;14.45;13.05;;;11.60;99.90;;;;;;5075483;28;20086;-41
2022/11/04 03:32:54;;;;;;;15.80;14.20;;;11.60;99.90;;;;;;5069117;28;20475;-38
2022/11/04 03:35:20;;;;;;;14.18;12.52;;;11.60;99.90;;;;;;5071554;28;20056;-39
2022/11/04 03:37:47;;;;;;;11.90;10.80;;;11.60;99.90;;;;;;5070245;28;20032;-38
2022/11/04 03:40:14;;;;;;;15.50;13.32;;;11.60;99.90;;;;;;5074444;28;20033;-38
2022/11/04 03:42:45;;;;;;;14.30;12.80;;;11.60;99.90;;;;;;5068848;28;20036;-38
2022/11/04 03:45:12;;;;;;;15.23;13.63;;;11.60;99.90;;;;;;5075381;28;20186;-40
2022/11/04 03:47:38;;;;;;;15.65;14.05;;;11.50;99.90;;;;;;5068208;28;20657;-39
2022/11/04 03:50:23;;;;;;;14.48;12.98;;;11.50;99.90;;;;;;5077923;28;20028;-37
2022/11/04 03:52:49;;;;;;;14.20;11.75;;;11.50;99.90;;;;;;5067271;28;20077;-36
2022/11/04 03:55:15;;;;;;;15.48;12.30;;;11.50;99.90;;;;;;5077287;28;20020;-39
2022/11/04 03:58:03;;;;;;;13.02;11.68;;;11.50;99.90;;;;;;5067754;28;20712;-40
2022/11/04 04:00:34;;;;;;;14.57;11.85;;;11.50;99.90;;;;;;5075509;28;20028;-39
2022/11/04 04:03:14;;;;;;;16.42;11.50;;;11.50;99.90;;;;;;5067237;28;20024;-41
2022/11/04 04:05:53;;;;;;;12.30;10.80;;;11.40;99.90;;;;;;5076970;28;20039;-40
2022/11/04 04:08:40;;;;;;;11.60;9.80;;;11.40;99.90;;;;;;5067193;28;20040;-41
2022/11/04 04:11:38;;;;;;;12.73;11.02;;;11.40;99.90;;;;;;5077234;28;20032;-40
2022/11/04 04:14:38;;;;;;;13.23;10.00;;;11.30;99.90;;;;;;5080547;28;20115;-40
2022/11/04 04:17:17;;;;;;;11.73;10.15;;;11.30;99.90;;;;;;5083710;28;20055;-39
2022/11/04 04:19:49;;;;;;;12.27;10.20;;;11.20;99.90;;;;;;5076467;28;20025;-37
2022/11/04 04:22:24;;;;;;;11.45;8.82;;;11.10;99.90;;;;;;5084173;28;20035;-41
2022/11/04 04:27:40;;;;;;;9.43;8.48;;;11.00;99.90;;;;;;5085263;28;20083;-38
2022/11/04 04:30:14;;;;;;;10.68;9.15;;;11.00;99.90;;;;;;5075939;28;20024;-38
2022/11/04 04:32:54;;;;;;;10.27;8.55;;;11.00;99.90;;;;;;5084197;28;20042;-40
2022/11/04 04:35:41;;;;;;;9.40;7.88;;;11.00;99.90;;;;;;5073224;28;20139;-38
2022/11/04 04:46:58;;;;;;;7.15;5.90;;;10.90;99.90;;;;;;5076865;28;20067;-40
2022/11/04 04:49:23;;;;;;;9.18;6.20;;;10.90;99.90;;;;;;5065888;28;20032;-40
2022/11/04 04:51:49;;;;;;;7.63;5.85;;;10.90;99.90;;;;;;5076510;28;20016;-40
2022/11/04 04:54:14;;;;;;;9.02;5.80;;;10.80;99.90;;;;;;5064949;28;20574;-40
2022/11/04 04:56:40;;;;;;;7.05;5.57;;;10.80;99.90;;;;;;5077018;28;20120;-38
2022/11/04 04:59:05;;;;;;;8.25;5.30;;;10.80;99.90;;;;;;5065334;28;20062;-40
2022/11/04 05:01:31;;;;;;;8.57;5.25;;;10.70;99.90;;;;;;5077312;28;20094;-40
2022/11/04 05:03:57;;;;;;;7.60;5.40;;;10.70;99.90;;;;;;5065807;28;20078;-40
2022/11/04 05:06:22;;;;;;;5.85;4.93;;;10.70;99.90;;;;;;5074903;28;20044;-40
2022/11/04 05:08:48;;;;;;;7.78;5.22;;;10.60;99.90;;;;;;5067308;28;20034;-39
2022/11/04 05:11:13;;;;;;;7.55;5.25;;;10.60;99.90;;;;;;5072378;28;20479;-39
2022/11/04 05:13:39;;;;;;;9.50;6.03;;;10.50;99.90;;;;;;5069953;28;20510;-40
2022/11/04 05:16:07;;;;;;;6.18;5.57;;;10.40;99.90;;;;;;5069515;28;20027;-39
2022/11/04 05:18:33;;;;;;;7.97;5.82;;;10.40;99.90;;;;;;5072479;28;20090;-39
2022/11/04 05:21:03;;;;;;;9.00;5.63;;;10.40;99.90;;;;;;5067082;28;20086;-40
2022/11/04 05:23:28;;;;;;;6.95;6.25;;;10.40;99.90;;;;;;5073188;28;20056;-37
2022/11/04 05:25:57;;;;;;;6.72;5.10;;;10.40;99.90;;;;;;5066192;28;20548;-40
2022/11/04 05:28:23;;;;;;;6.53;5.93;;;10.30;99.90;;;;;;5074672;28;20378;-40
2022/11/04 05:30:48;;;;;;;7.32;5.85;;;10.30;99.90;;;;;;5065408;28;20468;-41
2022/11/04 05:33:14;;;;;;;8.00;6.07;;;10.30;99.90;;;;;;5075549;28;20565;-39
2022/11/04 05:35:39;;;;;;;9.10;5.75;;;10.20;99.90;;;;;;5064367;28;20484;-37
2022/11/04 05:38:05;;;;;;;7.63;5.97;;;10.20;99.90;;;;;;5076346;28;20036;-38
2022/11/04 05:40:30;;;;;;;8.38;5.88;;;10.20;99.90;;;;;;5064294;28;20009;-39
2022/11/04 05:42:59;;;;;;;7.75;5.75;;;10.20;99.90;;;;;;5076076;28;20111;-39
2022/11/04 05:45:25;;;;;;;7.53;5.82;;;10.20;99.90;;;;;;5063238;28;20025;-41
2022/11/04 05:48:02;;;;;;;7.18;5.38;;;10.20;99.90;;;;;;5074864;28;20028;-41
2022/11/04 05:50:29;;;;;;;6.85;5.30;;;10.20;99.90;;;;;;5063574;28;20518;-41
2022/11/04 05:52:59;;;;;;;6.80;5.53;;;10.20;99.90;;;;;;5073203;28;20036;-40
2022/11/04 05:55:25;;;;;;;8.02;5.53;;;10.20;99.90;;;;;;5065854;28;20033;-41
2022/11/04 05:57:51;;;;;;;8.07;5.53;;;10.30;99.90;;;;;;5071262;28;20036;-39
2022/11/04 06:00:17;;;;;;;7.75;5.28;;;10.20;99.90;;;;;;5067788;28;20025;-41
2022/11/04 06:02:43;;;;;;;7.93;5.55;;;10.20;99.90;;;;;;5069599;28;20031;-39
2022/11/04 06:05:08;;;;;;;6.57;5.00;;;10.20;99.90;;;;;;5069933;28;20025;-37
2022/11/04 06:07:34;;;;;;;6.63;5.10;;;10.20;99.90;;;;;;5066512;28;20100;-40
2022/11/04 06:09:59;;;;;;;7.78;5.00;;;10.20;99.90;;;;;;5073883;28;20907;-40
2022/11/04 06:12:25;;;;;;;7.97;4.90;;;10.20;99.90;;;;;;5073773;28;20031;-39
2022/11/04 06:14:51;;;;;;;6.22;4.60;;;10.30;99.90;;;;;;5072586;28;20807;-39
2022/11/04 06:17:19;;;;;;;6.93;4.75;;;10.30;99.90;;;;;;5082723;28;20533;-40
2022/11/04 06:19:45;;;;;;;6.90;4.70;;;10.30;99.90;;;;;;5074625;28;20028;-40
2022/11/04 06:22:13;;;;;;;7.55;3.83;;;10.30;99.90;;;;;;5063352;28;20033;-40
2022/11/04 06:24:39;;;;;;;5.15;3.78;;;10.30;99.90;;;;;;5076707;28;20366;-40
2022/11/04 06:27:04;;;;;;;7.28;3.50;;;10.30;99.90;;;;;;5063092;28;20467;-40
2022/11/04 06:29:30;;;;;;;6.70;3.55;;;10.30;99.90;;;;;;5076021;28;20115;-41
2022/11/04 06:31:56;;;;;;;6.57;3.42;;;10.20;99.90;;;;;;5063885;28;20643;-40
2022/11/04 06:34:21;;;;;;;4.95;3.30;;;10.20;99.90;;;;;;5072466;28;20052;-40
2022/11/04 06:36:50;;;;;;;4.22;3.40;;;10.20;99.90;;;;;;5065761;28;20815;-39
2022/11/04 06:39:18;;;;;;;5.82;3.15;;;10.20;99.90;;;;;;5070811;28;20024;-40
2022/11/04 06:41:47;;;;;;;5.85;3.28;;;10.20;99.90;;;;;;5066650;28;20028;-41
2022/11/04 06:44:12;;;;;;;6.47;3.00;;;10.20;99.90;;;;;;5069167;28;20796;-40
2022/11/04 06:46:42;;;;;;;4.93;2.83;;;10.20;99.90;;;;;;5069469;28;20020;-40
2022/11/04 06:49:13;;;;;;;5.00;2.83;;;10.10;99.90;;;;;;5066856;28;20056;-40
2022/11/04 06:51:38;;;;;;;4.85;2.97;;;10.10;99.90;;;;;;5070828;28;20059;-40
2022/11/04 06:54:04;;;;;;;5.63;2.75;;;10.00;99.90;;;;;;5064699;28;20043;-39
2022/11/04 06:56:30;;;;;;;5.57;3.00;;;10.00;99.90;;;;;;5073163;28;20147;-40
2022/11/04 06:58:56;;;;;;;4.70;2.58;;;10.00;99.90;;;;;;5064622;28;20116;-39
2022/11/04 07:01:24;;;;;;;6.85;2.60;;;9.90;99.90;;;;;;5073369;28;20089;-40
2022/11/04 07:03:53;;;;;;;3.92;2.45;;;9.90;99.90;;;;;;5064611;28;20181;-39
2022/11/04 07:06:20;;;;;;;4.60;2.80;;;9.90;99.90;;;;;;5073786;28;20021;-39
2022/11/04 07:08:47;;;;;;;3.92;2.67;;;9.80;99.90;;;;;;5062116;28;20035;-39
2022/11/04 07:11:12;;;;;;;4.15;2.63;;;9.80;99.90;;;;;;5075163;28;20028;-39
2022/11/04 07:13:39;;;;;;;4.75;3.15;;;9.80;99.90;;;;;;5061666;28;20037;-40
2022/11/04 07:16:06;;;;;;;4.10;2.80;;;9.80;99.90;;;;;;5073473;28;20056;-40
2022/11/04 07:18:32;;;;;;;4.25;2.78;;;9.80;99.90;;;;;;5061765;28;20040;-39
2022/11/04 07:20:58;;;;;;;5.57;3.00;;;9.80;99.90;;;;;;5072621;28;20024;-41
2022/11/04 07:23:24;;;;;;;3.70;3.05;;;9.80;99.90;;;;;;5063305;28;20036;-40
2022/11/04 07:25:59;;;;;;;8.02;3.30;;;9.80;99.90;;;;;;5070241;28;20039;-40
2022/11/04 07:28:25;;;;;;;5.90;3.15;;;9.80;99.90;;;;;;5065770;28;20036;-42
2022/11/04 07:30:50;;;;;;;7.65;3.05;;;9.80;99.90;;;;;;5070002;28;20028;-39
2022/11/04 07:33:17;;;;;;;4.10;2.72;;;9.80;99.90;;;;;;5067603;28;20020;-40
2022/11/04 07:35:44;;;;;;;4.72;2.95;;;9.80;99.90;;;;;;5067587;28;20028;-40
2022/11/04 07:38:09;;;;;;;4.38;3.22;;;9.80;99.90;;;;;;5070142;28;20048;-39
2022/11/04 07:40:35;;;;;;;5.85;3.33;;;9.80;99.90;;;;;;5064867;28;20031;-38
2022/11/04 07:43:01;;;;;;;3.78;2.88;;;9.80;99.90;;;;;;5066864;28;20039;-41
2022/11/04 07:45:26;;;;;;;5.10;2.97;;;9.80;99.90;;;;;;5063344;28;20111;-40
2022/11/04 07:47:55;;;;;;;4.50;3.33;;;9.80;99.90;;;;;;5066576;28;20020;-40
2022/11/04 07:50:20;;;;;;;7.10;3.70;;;9.80;99.90;;;;;;5062200;28;20025;-40
2022/11/04 07:52:49;;;;;;;4.88;3.20;;;9.80;99.90;;;;;;5073921;28;20031;-40
2022/11/04 07:55:18;;;;;;;5.88;3.45;;;9.90;99.90;;;;;;5062535;28;20024;-40
2022/11/04 07:57:45;;;;;;;4.32;3.10;;;9.90;99.90;;;;;;5068982;28;20471;-37
2022/11/04 08:00:11;;;;;;;4.63;2.90;;;9.90;99.90;;;;;;5082352;28;20075;-41
2022/11/04 08:02:36;;;;;;;4.45;2.90;;;9.90;99.90;;;;;;5070186;28;20028;-39
2022/11/04 08:05:05;;;;;;;5.80;3.00;;;9.90;99.90;;;;;;5066085;28;20408;-38
2022/11/04 08:07:33;;;;;;;4.13;2.83;;;10.00;99.90;;;;;;5075551;28;20497;-41
2022/11/04 08:10:05;;;;;;;6.40;3.05;;;10.00;99.90;;;;;;5086282;28;20467;-38
2022/11/04 08:12:31;;;;;;;4.03;2.70;;;9.90;99.90;;;;;;5075288;28;20032;-38
2022/11/04 08:15:04;;;;;;;4.78;3.03;;;10.00;99.90;;;;;;5084099;28;20024;-40
2022/11/04 08:17:29;;;;;;;;;;;10.00;99.90;;;;;;5077666;28;20558;-39
2022/11/04 08:19:55;;;;;;;5.97;3.00;;;10.00;99.90;;;;;;5081308;28;19915;-39
2022/11/04 08:22:20;;;;;;;4.55;2.83;;;10.00;99.90;;;;;;5080343;28;20037;-38
2022/11/04 08:24:48;;;;;;;6.25;3.25;;;10.00;99.90;;;;;;5078654;28;20064;-40
2022/11/04 08:27:14;;;;;;;7.65;3.75;;;10.10;99.90;;;;;;5081286;28;20140;-40
2022/11/04 08:29:40;;;;;;;5.28;3.55;;;10.10;99.90;;;;;;5076707;28;20028;-38
2022/11/04 08:32:07;;;;;;;5.47;3.33;;;10.20;99.90;;;;;;5084753;28;20119;-41
2022/11/04 08:34:32;;;;;;;5.18;3.00;;;10.30;99.90;;;;;;5073922;28;20071;-40
2022/11/04 08:36:59;;;;;;;6.25;3.10;;;10.40;99.90;;;;;;5084378;28;20474;-39
2022/11/04 08:39:27;;;;;;;4.38;2.95;;;10.40;99.90;;;;;;5074174;28;20060;-40
2022/11/04 08:41:52;;;;;;;4.82;2.83;;;10.50;99.90;;;;;;5085604;28;20032;-40
2022/11/04 08:44:22;;;;;;;5.25;3.20;;;10.50;99.90;;;;;;5072272;28;20026;-42
2022/11/04 08:46:48;;;;;;;5.63;3.28;;;10.50;99.90;;;;;;5084747;28;20024;-40
2022/11/04 08:49:14;;;;;;;5.47;2.40;;;10.50;99.90;;;;;;5071787;28;20458;-40
2022/11/04 08:51:43;;;;;;;5.75;3.60;;;10.50;99.90;;;;;;5076236;28;20021;-40
2022/11/04 08:54:09;;;;;;;6.70;3.60;;;10.60;99.90;;;;;;5068334;28;20052;-39
2022/11/04 08:56:37;;;;;;;9.82;3.47;;;10.50;99.90;;;;;;5084388;28;20023;-40
2022/11/04 08:59:07;;;;;;;5.85;3.20;;;10.60;99.90;;;;;;5079973;28;20120;-39
2022/11/04 09:01:35;;;;;;;5.72;3.25;;;10.60;99.90;;;;;;5079380;28;20089;-41
2022/11/04 09:04:01;;;;;;;4.80;2.85;;;10.60;99.90;;;;;;5081078;28;20031;-40
2022/11/04 09:06:30;;;;;;;6.13;3.53;;;10.70;99.90;;;;;;5084484;28;20055;-41
2022/11/04 09:09:02;;;;;;;7.22;4.03;;;10.70;99.90;;;;;;5079391;28;20025;-39
2022/11/04 09:11:28;;;;;;;5.07;3.00;;;10.80;99.90;;;;;;5079054;28;20059;-42
2022/11/04 09:13:55;;;;;;;5.28;2.92;;;10.80;99.90;;;;;;5080971;28;20497;-41
2022/11/04 09:16:20;;;;;;;7.25;3.00;;;10.90;99.90;;;;;;5075110;28;20092;-39
2022/11/04 09:18:46;;;;;;;4.78;2.67;;;11.00;99.90;;;;;;5082449;28;20032;-40
2022/11/04 09:21:11;;;;;;;6.68;3.28;;;11.10;99.90;;;;;;5073061;28;20051;-39
2022/11/04 09:23:37;;;;;;;5.95;3.28;;;11.20;99.90;;;;;;5083348;28;20063;-39
2022/11/04 09:26:07;;;;;;;5.25;2.72;;;11.30;99.90;;;;;;5074092;28;20111;-40
2022/11/04 09:28:32;;;;;;;7.40;3.28;;;11.30;99.90;;;;;;5081747;28;20020;-41
2022/11/04 09:30:58;;;;;;;6.88;3.90;;;11.40;99.90;;;;;;5071954;28;20016;-38
2022/11/04 09:33:23;;;;;;;9.68;3.58;;;11.50;99.90;;;;;;5084259;28;20082;-41
2022/11/04 09:35:56;;;;;;;8.57;3.83;;;11.50;99.90;;;;;;5071506;28;20119;-39
2022/11/04 09:38:22;;;;;;;5.85;4.45;;;11.60;99.90;;;;;;5083670;28;20040;-41
2022/11/04 09:40:49;;;;;;;5.93;4.45;;;11.70;99.90;;;;;;5071888;28;20639;-42
2022/11/04 09:43:52;;;;;;;6.75;4.47;;;11.70;99.90;;;;;;5065949;28;20082;-40
2022/11/04 09:46:19;;;;;;;5.65;4.60;;;11.80;99.90;;;;;;5071259;28;20032;-41
2022/11/04 09:48:54;;;;;;;6.93;5.13;;;11.90;99.90;;;;;;5084667;28;20111;-41
2022/11/04 09:51:26;;;;;;;6.63;4.80;;;11.90;99.90;;;;;;5070332;28;20045;-40
2022/11/04 09:53:59;;;;;;;9.02;4.80;;;11.90;99.90;;;;;;5084776;28;20116;-39
2022/11/04 09:56:34;;;;;;;7.70;4.88;;;11.90;99.90;;;;;;5072797;28;20165;-39
2022/11/04 09:59:04;;;;;;;6.85;4.57;;;12.00;99.90;;;;;;5080871;28;20032;-40
2022/11/04 10:01:37;;;;;;;7.60;4.60;;;12.00;99.90;;;;;;5076072;28;20437;-41
2022/11/04 10:04:21;;;;;;;;;;;12.00;99.90;;;;;;5062997;28;20563;-41
2022/11/04 10:06:46;;;;;;;9.38;5.20;;;12.10;99.90;;;;;;5068128;28;19909;-40
2022/11/04 10:09:16;;;;;;;8.70;5.20;;;12.10;99.90;;;;;;5083314;28;20034;-39
2022/11/04 10:11:51;;;;;;;8.23;5.20;;;12.10;99.90;;;;;;5078384;28;20051;-41
2022/11/04 10:14:41;;;;;;;7.28;5.10;;;12.10;99.90;;;;;;5070344;28;20507;-39
2022/11/04 10:17:42;;;;;;;10.07;5.47;;;12.10;99.90;;;;;;5078394;28;20039;-39
2022/11/04 10:20:26;;;;;;;7.63;5.65;;;12.10;99.90;;;;;;4979902;28;20034;-41
2022/11/04 10:22:57;;;;;;;10.48;5.75;;;12.20;99.90;;;;;;5070313;28;20043;-40
2022/11/04 10:25:46;;;;;;;9.45;5.72;;;12.20;99.90;;;;;;5081997;28;20016;-42
2022/11/04 10:28:16;;;;;;;6.97;4.88;;;12.20;99.90;;;;;;5073909;28;20036;-41
2022/11/04 10:30:45;;;;;;;8.55;5.88;;;12.30;99.90;;;;;;5082646;28;20176;-41
2022/11/04 10:33:24;;;;;;;7.40;5.55;;;12.30;99.90;;;;;;5075213;28;20035;-40
2022/11/04 10:35:56;;;;;;;7.28;5.85;;;12.30;99.90;;;;;;5082818;28;20054;-39
2022/11/04 10:38:43;;;;;;;11.38;6.28;;;12.40;99.90;;;;;;5078235;28;20437;-40
2022/11/04 10:41:23;;;;;;;8.23;5.90;;;12.40;99.90;;;;;;5079395;28;20070;-41
2022/11/04 10:44:21;;;;;;;11.25;6.60;;;12.40;99.90;;;;;;5078699;28;20022;-41
2022/11/04 10:47:00;;;;;;;9.45;6.35;;;12.30;99.90;;;;;;5074495;28;20072;-39
2022/11/04 10:49:47;;;;;;;9.23;7.25;;;12.30;99.90;;;;;;5078825;28;20140;-40
2022/11/04 10:52:13;;;;;;;8.48;6.43;;;12.20;99.90;;;;;;5078821;28;20024;-40
2022/11/04 10:54:43;;;;;;;8.98;6.60;;;12.30;99.90;;;;;;5074338;28;20028;-41
2022/11/04 10:57:19;;;;;;;8.55;6.22;;;12.40;99.90;;;;;;5080072;28;20121;-40
2022/11/04 10:59:59;;;;;;;7.57;6.80;;;12.40;99.90;;;;;;5074450;28;20539;-41
2022/11/04 11:02:36;;;;;;;7.22;6.15;;;12.40;99.90;;;;;;5078981;28;20040;-41
2022/11/04 11:05:23;;;;;;;8.63;6.53;;;12.40;99.90;;;;;;5075333;28;20028;-41
2022/11/04 11:07:54;;;;;;;7.38;6.50;;;12.50;99.90;;;;;;5078543;28;20024;-40
2022/11/04 11:10:25;;;;;;;9.68;7.00;;;12.50;99.90;;;;;;5069467;28;20107;-40
2022/11/04 11:13:12;;;;;;;11.75;6.88;;;12.50;99.90;;;;;;5075017;28;20024;-40
2022/11/04 11:15:41;;;;;;;9.57;7.00;;;12.60;99.90;;;;;;5075677;28;20472;-40
2022/11/04 11:18:06;;;;;;;9.07;7.22;;;12.50;99.90;;;;;;5077711;28;20039;-39
2022/11/04 11:20:36;;;;;;;7.57;6.82;;;12.50;99.90;;;;;;5073363;28;20698;-40
2022/11/04 11:23:08;;;;;;;7.75;6.50;;;12.50;99.90;;;;;;5078384;28;20026;-41
2022/11/04 11:25:35;;;;;;;11.68;8.18;;;12.50;99.90;;;;;;5079842;28;20024;-40
2022/11/04 11:28:04;;;;;;;11.27;7.78;;;12.50;99.90;;;;;;5080985;28;20032;-39
2022/11/04 11:30:56;;;;;;;9.23;7.53;;;12.50;99.90;;;;;;5070923;28;20020;-39
2022/11/04 11:33:23;;;;;;;11.63;8.23;;;12.50;99.90;;;;;;5078421;28;20092;-39
2022/11/04 11:36:13;;;;;;;9.07;7.32;;;12.60;99.90;;;;;;5071221;28;20035;-40
2022/11/04 11:38:53;;;;;;;11.30;7.68;;;12.50;99.90;;;;;;5063797;28;20081;-40
2022/11/04 11:41:27;;;;;;;9.02;7.22;;;12.50;99.90;;;;;;5077335;28;20031;-38
2022/11/04 11:43:55;;;;;;;6.28;5.45;;;12.60;99.90;;;;;;5077947;28;20063;-39
2022/11/04 11:46:26;;;;;;;8.98;7.07;;;12.60;99.90;;;;;;5085047;28;20511;-41
2022/11/04 11:48:59;;;;;;;9.50;7.23;;;12.60;99.90;;;;;;5084639;28;20047;-40
2022/11/04 11:51:35;;;;;;;8.85;7.68;;;12.70;99.90;;;;;;5076373;28;20110;-43
2022/11/04 11:54:32;;;;;;;9.38;7.45;;;12.80;99.90;;;;;;5084304;28;21235;-40
2022/11/04 11:57:02;;;;;;;7.90;7.10;;;12.80;99.90;;;;;;5078836;28;20085;-39
2022/11/04 12:00:01;;;;;;;8.38;7.40;;;12.90;99.90;;;;;;5082729;28;20036;-40
2022/11/04 12:02:41;;;;;;;8.77;7.50;;;12.90;99.90;;;;;;5067442;28;20052;-39
2022/11/04 12:05:10;;;;;;;11.02;8.35;;;13.00;99.90;;;;;;5076816;28;20551;-40
2022/11/04 12:07:49;;;;;;;11.85;9.32;;;13.00;99.90;;;;;;5082342;28;20028;-40
2022/11/04 12:10:24;;;;;;;12.43;9.98;;;13.00;99.90;;;;;;5077566;28;20036;-37
2022/11/04 12:13:04;;;;;;;15.13;11.52;;;13.00;99.90;;;;;;5082613;28;20032;-39
2022/11/04 12:15:38;;;;;;;11.95;10.60;;;12.90;99.90;;;;;;5077658;28;20069;-38
2022/11/04 12:18:30;;;;;;;15.15;10.45;;;12.90;99.90;;;;;;5082385;28;20036;-36
2022/11/04 12:21:06;;;;;;;13.32;10.88;;;12.90;99.90;;;;;;5075399;28;20028;-39
2022/11/04 12:23:37;;;;;;;13.20;10.32;;;12.80;99.90;;;;;;5085422;28;20416;-40
2022/11/04 12:26:23;;;;;;;12.52;9.88;;;12.80;99.90;;;;;;5075456;28;20029;-39
2022/11/04 12:28:51;;;;;;;11.98;9.80;;;12.80;99.90;;;;;;5072190;28;20028;-45
2022/11/04 12:31:39;;;;;;;12.35;9.95;;;12.90;99.90;;;;;;5074418;28;20024;-40
2022/11/04 12:34:27;;;;;;;9.93;8.70;;;12.90;99.90;;;;;;5066830;28;20064;-43
2022/11/04 12:37:12;;;;;;;9.77;8.13;;;12.90;99.90;;;;;;5073123;28;20132;-42
2022/11/04 12:40:10;;;;;;;13.75;8.85;;;12.90;99.90;;;;;;5085087;28;20040;-40
2022/11/04 12:43:07;;;;;;;9.60;8.57;;;13.00;99.90;;;;;;5067668;28;20118;-39
2022/11/04 12:46:02;;;;;;;9.18;8.20;;;13.00;99.90;;;;;;5066346;28;20039;-39
2022/11/04 12:48:52;;;;;;;11.60;9.00;;;13.10;99.90;;;;;;5076738;28;20028;-41
2022/11/04 12:51:35;;;;;;;12.50;9.57;;;13.10;99.90;;;;;;5079067;28;20020;-40
2022/11/04 12:54:32;;;;;;;13.93;10.52;;;13.10;99.90;;;;;;5079812;28;20047;-38
2022/11/04 12:57:18;;;;;;;12.85;9.73;;;13.10;99.90;;;;;;5076415;28;20025;-39
2022/11/04 12:59:59;;;;;;;11.80;9.43;;;13.10;99.90;;;;;;5084498;28;20480;-40
2022/11/04 13:02:33;;;;;;;10.65;9.52;;;13.20;99.90;;;;;;5073213;28;20021;-39
2022/11/04 13:05:06;;;;;;;12.60;9.52;;;13.20;99.90;;;;;;5065570;28;20029;-40
2022/11/04 13:07:54;;;;;;;8.88;7.97;;;13.20;99.90;;;;;;5075501;28;20467;-39
2022/11/04 13:10:52;;;;;;;7.95;7.22;;;13.20;99.90;;;;;;5064325;28;20770;-40
2022/11/04 13:13:23;;;;;;;11.43;9.73;;;13.20;99.90;;;;;;5072085;28;20020;-39
2022/11/04 13:15:54;;;;;;;14.68;9.48;;;13.20;99.90;;;;;;5084837;28;20039;-40
2022/11/04 13:18:21;;;;;;;10.88;8.80;;;13.20;99.90;;;;;;5071127;28;20388;-40
2022/11/04 13:20:56;;;;;;;9.50;7.63;;;13.20;99.90;;;;;;5085096;28;20472;-41
2022/11/04 13:23:48;;;;;;;12.63;8.70;;;13.20;99.90;;;;;;5071268;28;20649;-40
2022/11/04 13:26:16;;;;;;;10.63;8.23;;;13.20;99.90;;;;;;5046084;28;20043;-41
2022/11/04 13:28:44;;;;;;;9.32;8.32;;;13.20;99.90;;;;;;5071683;28;20046;-40
2022/11/04 13:31:33;;;;;;;8.85;7.78;;;13.20;99.90;;;;;;5084324;28;20035;-40
2022/11/04 13:34:10;;;;;;;12.52;8.85;;;13.20;99.90;;;;;;5071599;28;20169;-39
2022/11/04 13:36:56;;;;;;;9.73;8.52;;;13.30;99.90;;;;;;5084801;28;20063;-39
2022/11/04 13:39:37;;;;;;;10.50;8.45;;;13.30;99.90;;;;;;5075569;28;20041;-37
2022/11/04 13:42:18;;;;;;;10.25;8.75;;;13.20;99.90;;;;;;5065102;28;20024;-39